»·PEaware :: DAL2504 KSLC-KDEN

DAL2504 :: KSLC-KDEN

FLIGHT INFORMATION

Flight Status: Arrived
Operator:
Delta Air Lines
More flights by this operator :: More flights under this callsign
Pilot: John C. (18682)
Aircraft: AIRBUS A320
(A320)
More flights by this aircraft type
Origin: KSLC Salt Lake City Intl
United States
Destination: KDEN Denver Intl
United States
More flights between these airports :: More routes between these airports
Route: +LEETZ6 CHE KAILE2
File this flight plan on PilotEdge
Remarks:
Altitude:
(Current/Filed)
33,000ft
Speed:
(Current/Filed)
449kts
Departed: 06-May-18 03:07 PM
Arrived: 06-May-18 04:06 PM
Distance/Time
Traveled:
339nm/0:59
Distance/Time
To Go:
Arrived

Flight Plot

Page will automatically refresh every two minutes.

Flight plan parsing failed; only flown route is shown


Map Options




Map Legend


Flown Route
Filed Route
Departure Airport
Arrival Airport
Navaid (VOR, NDB)
Fix

Horizontal Profiles

Position Reports

Time Latitude Longitude Heading Altitude Ground
Speed
06-May-18 14:46 40.787616 -111.983877 251 4236ft 0kts
06-May-18 14:47 40.787616 -111.983877 251 4236ft 0kts
06-May-18 14:48 40.787616 -111.983877 251 4236ft 0kts
06-May-18 14:49 40.787616 -111.983877 251 4236ft 0kts
06-May-18 14:50 40.787616 -111.983877 251 4236ft 0kts
06-May-18 14:51 40.787616 -111.983877 251 4236ft 0kts
06-May-18 14:52 40.787616 -111.983877 251 4236ft 0kts
06-May-18 14:53 40.787616 -111.983877 251 4236ft 0kts
06-May-18 14:54 40.787616 -111.983877 251 4236ft 0kts
06-May-18 14:55 40.787616 -111.983877 251 4236ft 0kts
06-May-18 14:56 40.787616 -111.983877 251 4236ft 0kts
06-May-18 14:57 40.787725 -111.983455 251 4236ft 2kts
06-May-18 14:58 40.787638 -111.982945 343 4236ft 1kts
06-May-18 14:59 40.787619 -111.982938 341 4236ft 0kts
06-May-18 15:00 40.787956 -111.982958 4 4236ft 10kts
06-May-18 15:01 40.789942 -111.980486 81 4236ft 12kts
06-May-18 15:02 40.790874 -111.977219 2 4236ft 11kts
06-May-18 15:03 40.796640 -111.977859 355 4236ft 24kts
06-May-18 15:04 40.802841 -111.978385 11 4236ft 21kts
06-May-18 15:05 40.807140 -111.978459 33 4236ft 0kts
06-May-18 15:06 40.805961 -111.976771 174 4236ft 33kts
06-May-18 15:07 40.771556 -111.977694 215 5889ft 170kts
06-May-18 15:08 40.752727 -112.047072 269 7930ft 251kts
06-May-18 15:09 40.800167 -112.124538 312 11035ft 289kts
06-May-18 15:10 40.858976 -112.198409 311 14285ft 300kts
06-May-18 15:11 40.937234 -112.238473 351 17185ft 329kts
06-May-18 15:12 41.016879 -112.194407 75 19416ft 356kts
06-May-18 15:13 41.020245 -112.063379 115 21325ft 363kts
06-May-18 15:14 40.987628 -111.934477 110 23405ft 382kts
06-May-18 15:15 40.960235 -111.796363 110 25316ft 396kts
06-May-18 15:16 40.931695 -111.653598 110 27052ft 410kts
06-May-18 15:17 40.916163 -111.498896 99 28090ft 445kts
06-May-18 15:18 40.901345 -111.331397 103 28686ft 475kts
06-May-18 15:19 40.880534 -111.155375 103 29411ft 494kts
06-May-18 15:20 40.858799 -110.973972 102 30353ft 505kts
06-May-18 15:21 40.836516 -110.790607 102 31524ft 507kts
06-May-18 15:22 40.813885 -110.607038 101 32696ft 507kts
06-May-18 15:23 40.791003 -110.423951 101 33336ft 506kts
06-May-18 15:24 40.767923 -110.241740 102 33331ft 506kts
06-May-18 15:25 40.744644 -110.059251 100 33294ft 507kts
06-May-18 15:26 40.730903 -109.874539 97 33263ft 508kts
06-May-18 15:27 40.717610 -109.688844 97 33265ft 508kts
06-May-18 15:28 40.704101 -109.504220 97 33267ft 508kts
06-May-18 15:29 40.690329 -109.320043 98 33271ft 508kts
06-May-18 15:30 40.676245 -109.135699 98 33262ft 507kts
06-May-18 15:31 40.661800 -108.950593 97 33255ft 508kts
06-May-18 15:32 40.647096 -108.766013 97 33267ft 509kts
06-May-18 15:33 40.632040 -108.580786 97 33315ft 509kts
06-May-18 15:34 40.616680 -108.395564 97 33351ft 510kts
06-May-18 15:35 40.601439 -108.215244 98 33347ft 509kts
06-May-18 15:36 40.585507 -108.030302 97 33336ft 508kts
06-May-18 15:37 40.569306 -107.845776 98 33335ft 508kts
06-May-18 15:38 40.552847 -107.661727 98 33339ft 509kts
06-May-18 15:39 40.536035 -107.477079 97 33347ft 509kts
06-May-18 15:40 40.519521 -107.293799 95 33370ft 509kts
06-May-18 15:41 40.509811 -107.109089 95 33363ft 508kts
06-May-18 15:42 40.499765 -106.923760 94 33349ft 509kts
06-May-18 15:43 40.489410 -106.738191 93 33340ft 513kts
06-May-18 15:44 40.478650 -106.550752 93 33176ft 515kts
06-May-18 15:45 40.467715 -106.365356 93 32216ft 507kts
06-May-18 15:46 40.456779 -106.184968 94 30317ft 491kts
06-May-18 15:47 40.445602 -106.007580 96 26616ft 480kts
06-May-18 15:48 40.421221 -105.841874 102 22839ft 447kts
06-May-18 15:49 40.397887 -105.693792 102 20716ft 386kts
06-May-18 15:50 40.376208 -105.557988 102 18809ft 379kts
06-May-18 15:51 40.355897 -105.430747 100 17929ft 346kts
06-May-18 15:52 40.339288 -105.308804 101 16373ft 338kts
06-May-18 15:53 40.322842 -105.189320 101 14859ft 328kts
06-May-18 15:54 40.306802 -105.073600 101 13559ft 313kts
06-May-18 15:55 40.292250 -104.969041 103 13113ft 271kts
06-May-18 15:56 40.278815 -104.874951 103 12206ft 258kts
06-May-18 15:57 40.265825 -104.784761 102 11208ft 248kts
06-May-18 15:58 40.238106 -104.706229 143 10594ft 222kts
06-May-18 15:59 40.183429 -104.684039 178 10028ft 205kts
06-May-18 16:00 40.126613 -104.684136 179 9552ft 204kts
06-May-18 16:01 40.070698 -104.684801 178 8874ft 193kts
06-May-18 16:02 40.020432 -104.685377 177 7827ft 167kts
06-May-18 16:03 39.974043 -104.685927 177 6961ft 163kts
06-May-18 16:04 39.932170 -104.686376 176 6151ft 149kts
06-May-18 16:05 39.891371 -104.686679 176 5444ft 135kts
06-May-18 16:06 39.874470 -104.686749 172 5443ft 26kts
06-May-18 16:07 39.870794 -104.683806 154 5443ft 14kts
06-May-18 16:08 39.865896 -104.683730 179 5443ft 23kts
06-May-18 16:09 39.859588 -104.683806 179 5443ft 22kts
06-May-18 16:10 39.855957 -104.681798 89 5443ft 16kts
06-May-18 16:11 39.854874 -104.677149 172 5443ft 8kts
06-May-18 16:12 39.854353 -104.677072 173 5443ft 0kts
06-May-18 16:13 39.854353 -104.677072 173 5443ft 0kts

Navigation Log

Ident Type
Flight plan parsing failed, navigation log unavailable